Latest Coastal Weather Observations for Strahan

IDT60701

Issued at 11:25 pm EST Wednesday 17 September 2014 (issued every 10 minutes, with the page automatically refreshed every 10 minutes)

About coastal observations | Map of coastal stations | Coastal observations for TAS | Marine services | Other Formats
Station Details ID: 097072 Name: STRAHAN AERODROME Lat: -42.16 Lon: 145.29 Height: 21.0 m
Data from the previous 72 hours. | See also: Recent months at Strahan
Date/Time
EST
Temp

°C
Wind Pressure Rain
since 9am
mm
Weather Cloud Vis
km
Sea
Height
m
Swell
Dir
 
Speed
knots
Gust
knots
hPa Trend Height
m
Period
s
Dir
17/11:00pm 5.7 SSW 11 15 1014.1 - 3.4 - Partly cloudy 10 - - - -
17/10:30pm 5.1 SW 10 14 1013.8 - 3.4 - Partly cloudy 10 - - - -
17/10:00pm 5.7 SW 11 16 1013.3 - 3.4 - Partly cloudy 10 - - - -
17/09:30pm 4.8 SSW 9 11 1013.0 - 3.4 - Partly cloudy 10 - - - -
17/09:00pm 4.0 SSW 8 12 1012.5 - 3.4 - - 10 - - - -
17/08:30pm 5.0 SW 10 13 1012.0 - 3.4 - Partly cloudy 10 - - - -
17/08:00pm 4.6 SSW 10 13 1011.9 - 3.4 - Partly cloudy 10 - - - -
17/07:30pm 4.7 WSW 9 13 1011.3 - 3.4 - Partly cloudy 10 - - - -
17/07:00pm 5.1 SW 13 21 1010.8 - 3.4 - Partly cloudy 10 - - - -
17/06:30pm 5.2 SW 8 11 1010.4 - 3.4 - Partly cloudy 10 - - - -
17/06:00pm 6.8 WSW 15 23 1010.0 - 3.2 - Mostly cloudy 10 - - - -
17/05:30pm 6.5 WSW 13 18 1009.6 - 3.2 - Partly cloudy 10 - - - -
17/05:00pm 6.2 WSW 16 21 1009.4 - 3.2 - - 10 - - - -
17/04:30pm 6.2 SSW 12 18 1009.1 - 3.2 - Partly cloudy 10 - - - -
17/04:00pm 7.1 SSW 10 15 1009.0 - 3.2 - Partly cloudy 10 - - - -
17/03:30pm 6.1 S 9 14 1008.9 - 3.2 - Partly cloudy 10 - - - -
17/03:05pm 5.2 SSW 22 32 1008.8 - 3.2 - Partly cloudy 8 - - - -
17/03:04pm 5.3 SSW 24 32 1008.9 - 3.2 - Partly cloudy 8 - - - -
17/03:00pm 6.1 WSW 17 29 1008.7 - 2.8 Recent precip. Cloudy 10 - - - -
17/02:58pm 6.2 WSW 15 26 1008.6 - 2.8 - Partly cloudy 10 - - - -
17/02:38pm 5.1 WSW 25 30 1008.0 - 2.8 - Partly cloudy 7 - - - -
17/02:37pm 5.6 SSW 17 28 1008.0 - 2.8 - Partly cloudy 8 - - - -
17/02:30pm 7.0 SSW 14 19 1007.7 - 2.4 - Partly cloudy 10 - - - -
17/02:00pm 6.8 SSW 18 25 1007.5 - 2.4 - Partly cloudy 10 - - - -
17/01:30pm 6.9 WSW 14 19 1007.2 - 2.4 - Partly cloudy 10 - - - -
17/01:00pm 4.8 W 19 25 1007.1 - 2.4 - Partly cloudy 9 - - - -
17/12:44pm 5.8 WSW 16 26 1007.0 - 1.6 - Partly cloudy 10 - - - -
17/12:30pm 6.7 SW 13 19 1006.7 - 1.4 - Partly cloudy 10 - - - -
17/12:18pm 6.1 W 6 10 1006.6 - 1.4 - Partly cloudy 10 - - - -
17/12:00pm 5.5 WSW 18 25 1007.0 - 1.0 Rain Cloudy 5 - - - -
17/11:51am 6.6 WSW 15 26 1006.8 - 0.6 - Partly cloudy 10 - - - -
17/11:30am 8.7 WSW 13 19 1006.8 - 0.4 - Partly cloudy 10 - - - -
17/11:00am 8.2 SW 18 29 1006.9 - 0.4 - Partly cloudy 10 - - - -
17/10:56am 9.2 SW 16 29 1006.8 - 0.4 - Partly cloudy 10 - - - -
17/10:49am 9.5 SW 15 23 1006.8 - 0.4 - Partly cloudy 10 - - - -
17/10:30am 7.6 S 7 9 1006.8 - 0.4 - Partly cloudy 10 - - - -
17/10:00am 6.6 SW 7 9 1006.9 - 0.0 - Partly cloudy 10 - - - -
17/09:30am 6.4 WSW 10 17 1007.0 - 0.0 - Partly cloudy 10 - - - -
17/09:00am 5.6 W 14 20 1007.1 - 7.4 Recent precip. Cloudy 8 - - - -
17/08:30am 4.9 SW 8 11 1006.9 - 7.4 - Partly cloudy 10 - - - -
17/08:04am 5.0 WSW 18 28 1007.1 - 6.6 - Partly cloudy 8 - - - -
17/08:00am 4.9 WSW 20 30 1007.0 - 6.4 - Partly cloudy 8 - - - -
17/07:39am 5.9 W 22 34 1006.4 - 5.4 - Partly cloudy 5 - - - -
17/07:38am 6.4 W 20 31 1006.3 - 5.4 - Partly cloudy 9 - - - -
17/07:30am 6.8 WNW 7 10 1005.8 - 4.8 - Partly cloudy 10 - - - -
17/07:00am 6.5 W 13 19 1005.9 - 4.8 - Partly cloudy 10 - - - -
17/06:30am 6.3 WSW 11 15 1005.8 - 4.6 - Partly cloudy 10 - - - -
17/06:19am 6.3 WSW 13 19 1005.8 - 4.4 - Partly cloudy 10 - - - -
17/06:03am 6.3 WSW 19 25 1005.9 - 4.4 - Partly cloudy 5 - - - -
17/06:00am 6.4 W 18 25 1005.9 - 4.4 Rain Cloudy 9 - - - -
17/05:53am 6.6 W 15 22 1006.1 - 4.2 - Partly cloudy 10 - - - -
17/05:30am 6.8 NNW 6 12 1006.0 - 4.2 - Partly cloudy 10 - - - -
17/05:00am 7.0 NW 8 9 1006.2 - 4.2 - Partly cloudy 10 - - - -
17/04:30am 7.4 NW 9 11 1006.4 - 4.2 - Partly cloudy 10 - - - -
17/04:00am 7.6 WNW 9 13 1006.6 - 4.2 - Partly cloudy 10 - - - -
17/03:40am 7.3 WNW 7 10 1006.7 - 4.0 - Partly cloudy 10 - - - -
17/03:30am 7.1 NNW 7 9 1006.7 - 4.0 - Partly cloudy 10 - - - -
17/03:04am 6.7 NNE 6 9 1006.8 - 3.4 - Partly cloudy 7 - - - -
17/03:00am 6.7 NNE 5 8 1006.9 - 3.4 Rain Cloudy 9 - - - -
17/02:30am 6.5 NNE 6 8 1007.4 - 3.2 - Partly cloudy 10 - - - -
17/02:00am 6.6 N 4 7 1007.9 - 3.2 - Partly cloudy 10 - - - -
17/01:56am 6.5 N 4 7 1007.9 - 3.2 - Partly cloudy 10 - - - -
17/01:33am 6.5 N 7 9 1008.2 - 1.4 - Partly cloudy 5 - - - -
17/01:30am 6.3 N 7 9 1008.1 - 1.2 - Partly cloudy 9 - - - -
17/01:00am 6.1 NNE 7 8 1008.1 - 1.0 - - 10 - - - -
17/12:36am 6.5 NNE 6 9 1008.5 - 1.0 - Partly cloudy 10 - - - -
17/12:30am 6.6 NNE 6 9 1008.6 - 1.0 - Partly cloudy 10 - - - -
17/12:21am 6.7 N 7 10 1008.7 - 1.0 - Partly cloudy 5 - - - -
17/12:00am 6.7 N 7 9 1008.7 - 0.6 Recent precip. Cloudy 10 - - - -
 
Date/Time
EST
Temp

°C
Wind Pressure Rain
since 9am
mm
Weather Cloud Vis
km
Sea
Height
m
Swell
Dir
 
Speed
knots
Gust
knots
hPa Trend Height
m
Period
s
Dir
16/11:47pm 6.9 N 10 13 1008.7 - 0.6 - Partly cloudy 10 - - - -
16/11:31pm 6.9 N 9 14 1008.9 - 0.6 - Partly cloudy 5 - - - -
16/11:30pm 6.7 N 8 14 1009.0 - 0.4 - Partly cloudy 6 - - - -
16/11:00pm 6.3 NNE 7 9 1009.1 - 0.0 - Partly cloudy 10 - - - -
16/10:30pm 6.4 NNE 7 9 1009.4 - 0.0 - Partly cloudy 10 - - - -
16/10:00pm 6.4 NNE 7 9 1009.8 - 0.0 - Partly cloudy 10 - - - -
16/09:30pm 6.8 NNE 6 8 1009.8 - 0.0 - Partly cloudy 10 - - - -
16/09:00pm 6.8 NNE 6 7 1010.0 - 0.0 - Partly cloudy 10 - - - -
16/08:30pm 7.6 N 7 9 1010.1 - 0.0 - Partly cloudy 10 - - - -
16/08:00pm 7.5 N 6 8 1010.2 - 0.0 - Partly cloudy 10 - - - -
16/07:30pm 7.3 N 6 7 1010.2 - 0.0 - Partly cloudy 9 - - - -
16/07:00pm 8.3 N 6 8 1010.3 - 0.0 - Partly cloudy 10 - - - -
16/06:30pm 8.9 NNW 8 10 1010.1 - 0.0 - Partly cloudy 10 - - - -
16/06:00pm 9.3 NW 6 8 1010.1 - 0.0 - Cloudy 10 - - - -
16/05:30pm 9.3 NW 7 9 1010.0 - 0.0 - Partly cloudy 10 - - - -
16/05:00pm 9.3 W 8 13 1009.9 - 0.0 - Cloudy 10 - - - -
16/04:30pm 10.0 W 11 15 1009.9 - 0.0 - Partly cloudy 10 - - - -
16/04:00pm 11.1 WNW 9 14 1009.8 - 0.0 - Partly cloudy 10 - - - -
16/03:30pm 11.4 WNW 8 10 1009.8 - 0.0 - Cloudy 10 - - - -
16/03:00pm 12.4 WNW 7 11 1009.7 - 0.0 - Mostly cloudy 10 - - - -
16/02:30pm 12.4 W 9 13 1009.7 - 0.0 - Cloudy 10 - - - -
16/02:00pm 11.8 W 8 11 1009.8 - 0.0 - Cloudy 10 - - - -
16/01:30pm 11.5 W 7 10 1010.0 - 0.0 - Cloudy 10 - - - -
16/01:00pm 11.7 W 9 11 1010.2 - 0.0 - Partly cloudy 10 - - - -
16/12:30pm 12.6 W 7 9 1010.6 - 0.0 - Partly cloudy 10 - - - -
16/12:00pm 12.1 SSE 2 4 1010.9 - 0.0 - Mostly cloudy 10 - - - -
16/11:30am 11.3 SSE 4 6 1011.2 - 0.0 - Cloudy 10 - - - -
16/11:00am 10.3 SSE 5 7 1011.6 - 0.0 - Partly cloudy 10 - - - -
16/10:30am 10.2 SE 4 6 1011.9 - 0.0 - - 10 - - - -
16/10:00am 9.7 S 3 5 1012.2 - 0.0 - - 10 - - - -
16/09:30am 8.4 SSE 4 5 1012.3 - 0.0 - - 10 - - - -
16/09:00am 7.8 SSE 2 4 1012.4 - 0.0 - Cloudy 10 - - - -
16/08:30am 6.9 SSE 3 4 1012.5 - 0.0 - - 10 - - - -
16/08:00am 6.2 E 3 4 1012.7 - 0.0 - - 10 - - - -
16/07:30am 4.3 NE 3 4 1012.9 - 0.0 - Partly cloudy 10 - - - -
16/07:00am 3.8 NNE 4 5 1013.0 - 0.0 - Partly cloudy 10 - - - -
16/06:30am 1.4 E 1 4 1012.9 - 0.0 - - 10 - - - -
16/06:00am 2.2 CALM 0 4 1012.8 - 0.0 - Cloudy 10 - - - -
16/05:30am 2.0 NNE 4 5 1012.8 - 0.0 - - 10 - - - -
16/05:00am 2.0 NE 4 5 1013.0 - 0.0 - Partly cloudy 10 - - - -
16/04:30am 2.4 NE 4 5 1013.2 - 0.0 - Partly cloudy 10 - - - -
16/04:00am 2.4 ENE 4 5 1013.2 - 0.0 - Partly cloudy 10 - - - -
16/03:30am 1.1 E 1 4 1013.3 - 0.0 - Partly cloudy 10 - - - -
16/03:00am 1.6 E 5 6 1013.3 - 0.0 - Partly cloudy 10 - - - -
16/02:30am 1.8 ENE 5 6 1013.6 - 0.0 - - 10 - - - -
16/02:00am 3.2 NE 5 5 1013.9 - 0.0 - - 10 - - - -
16/01:30am 2.8 NE 5 5 1014.1 - 0.0 - - 10 - - - -
16/01:00am 3.2 NNE 5 6 1014.4 - 0.0 - - 10 - - - -
16/12:30am 3.6 NNE 5 7 1014.4 - 0.0 - - 10 - - - -
16/12:00am 3.6 NNE 7 8 1014.4 - 0.0 - Partly cloudy 10 - - - -
 
Date/Time
EST
Temp

°C
Wind Pressure Rain
since 9am
mm
Weather Cloud Vis
km
Sea
Height
m
Swell
Dir
 
Speed
knots
Gust
knots
hPa Trend Height
m
Period
s
Dir
15/11:30pm 3.8 N 4 5 1014.6 - 0.0 - Partly cloudy 10 - - - -
15/11:00pm 3.8 NNE 4 5 1014.9 - 0.0 - Partly cloudy 10 - - - -
15/10:30pm 3.2 CALM 0 0 1015.0 - 0.0 - Partly cloudy 10 - - - -
15/10:00pm 3.6 NE 5 7 1015.0 - 0.0 - - 10 - - - -
15/09:30pm 3.7 NNE 5 6 1015.1 - 0.0 - - 10 - - - -
15/09:00pm 3.9 NNE 4 5 1015.1 - 0.0 - Mostly clear 10 - - - -
15/08:30pm 4.3 N 3 4 1015.2 - 0.0 - - 10 - - - -
15/08:00pm 4.3 N 4 6 1015.3 - 0.0 - - 10 - - - -
15/07:30pm 5.6 N 5 7 1015.2 - 0.0 - - 10 - - - -
15/07:00pm 5.7 CALM 0 0 1015.0 - 0.0 - - 10 - - - -
15/06:30pm 6.8 SSW 4 5 1015.0 - 0.0 - - 10 - - - -
15/06:00pm 7.9 SSW 3 4 1014.9 - 0.0 - Mostly clear 10 - - - -
15/05:30pm 8.9 SW 5 7 1014.7 - 0.0 - - 10 - - - -
15/05:00pm 11.0 SW 6 9 1014.8 - 0.0 - - 10 - - - -
15/04:30pm 10.5 SSW 7 9 1014.7 - 0.0 - - 10 - - - -
15/04:00pm 11.4 SSW 9 11 1014.8 - 0.0 - - 10 - - - -
15/03:30pm 11.6 SSW 10 12 1014.8 - 0.0 - - 10 - - - -
15/03:00pm 11.4 SW 10 11 1015.0 - 0.0 - Mostly cloudy 10 - - - -
15/02:30pm 12.3 S 7 11 1015.3 - 0.0 - - 10 - - - -
15/02:00pm 13.2 WSW 7 11 1015.5 - 0.0 - - 10 - - - -
15/01:30pm 12.9 S 5 8 1015.6 - 0.0 - - 10 - - - -
15/01:00pm 12.1 SW 4 6 1016.1 - 0.0 - - 10 - - - -
15/12:30pm 10.9 SSE 6 9 1016.7 - 0.0 - - 10 - - - -
15/12:00pm 11.5 SSE 9 13 1017.3 - 0.0 - - 10 - - - -
15/11:30am 10.7 SSE 12 15 1017.4 - 0.0 - - 10 - - - -
15/11:00am 9.9 SSE 12 16 1017.8 - 0.0 - - 10 - - - -
15/10:30am 9.5 SSE 8 14 1018.2 - 0.0 - - 10 - - - -
15/10:00am 8.8 S 5 9 1018.5 - 0.0 - - 10 - - - -
15/09:30am 7.3 SSE 4 6 1019.0 - 0.0 - - 10 - - - -
15/09:00am 6.8 ESE 6 7 1019.2 - 0.0 - - 10 - - - -
15/08:30am 5.5 SSE 5 7 1019.0 - 0.0 - - 10 - - - -
15/08:00am 4.4 ENE 3 4 1019.3 - 0.0 - - 10 - - - -
15/07:30am 1.5 ENE 4 5 1019.0 - 0.0 - - 10 - - - -
15/07:00am -0.7 ENE 3 4 1018.7 - 0.0 - - 10 - - - -
15/06:30am -1.1 ENE 3 4 1018.7 - 0.0 - - 10 - - - -
15/06:00am -0.5 ENE 4 5 1018.6 - 0.0 - - 10 - - - -
15/05:30am -0.2 NNE 3 4 1018.5 - 0.0 - - 10 - - - -
15/05:00am -0.3 ENE 5 5 1018.4 - 0.0 - - 10 - - - -
15/04:30am 0.5 ENE 4 4 1018.6 - 0.0 - - 10 - - - -
15/04:00am 0.4 NE 1 4 1018.6 - 0.0 - - 10 - - - -
15/03:30am 1.0 NE 3 3 1018.9 - 0.0 - - 10 - - - -
15/03:00am 1.2 NNE 4 5 1019.2 - 0.0 - - 10 - - - -
15/02:30am 0.6 N 4 5 1019.2 - 0.0 - - 10 - - - -
15/02:00am 1.4 NE 4 5 1019.4 - 0.0 - Partly cloudy 10 - - - -
15/01:30am 1.1 N 3 4 1019.7 - 0.0 - - 10 - - - -
15/01:00am 1.2 CALM 0 0 1019.8 - 0.0 - - 10 - - - -
15/12:30am 1.4 E 3 3 1019.8 - 0.0 - - 10 - - - -
15/12:00am 2.6 ENE 5 6 1020.0 - 0.0 - - 10 - - - -
 
Date/Time
EST
Temp

°C
Wind Pressure Rain
since 9am
mm
Weather Cloud Vis
km
Sea
Height
m
Swell
Dir
 
Speed
knots
Gust
knots
hPa Trend Height
m
Period
s
Dir
14/11:30pm 2.7 E 4 5 1020.1 - 0.0 - Partly cloudy 10 - - - -

Other Formats:

Comma delimited format used in spreadsheet applications
http://www.bom.gov.au/fwo/IDT60701/IDT60701.94956.axf

JavaScript Object Notation format (JSON) in row-major order
http://www.bom.gov.au/fwo/IDT60701/IDT60701.94956.json